KOXI

Starke County Airport

Knox, Indiana, USA
METAR KOXI 200055Z AUTO 21015G22KT 10SM CLR 01/M03 A2983 RMK AO1
Observed Flight Rules
Jan-20 @ 00:55 UTC (30 minutes ago) Visual Flight Rules
Wind Visibility Clouds
210° at 15 knots
 Gusting to 22 knots
10 miles
  • Clear skies
Temperatures Readings
Current 1°C / 34°F
Dewpoint -3°C / 27°F
Humidity 75%
Altimeter 29.83" Hg
Pressure 1010 hPa
Elevation 209
METAR KOXI 200055Z AUTO 21015G22KT 10SM CLR 01/M03 A2983 RMK AO1
Observed Flight Rules
Jan-20 @ 00:55 UTC
(30 minutes ago)
VFR
Wind Visibility
210° at 15 knots
 Gusting to 22 knots
10 miles
Clouds
  • Clear skies
Temperature Dewpoint
1°C / 34°F -3°C / 27°F
Humidity Altimeter Pressure
75% 29.83" Hg 1010 hPa